Time;durP1;ratioP1;P1;durP2;ratioP2;P2;SDS_P1;SDS_P2;PMS_P1;PMS_P2;Temp;Humidity;BMP_temperature;BMP_pressure;BME280_temperature;BME280_humidity;BME280_pressure;Samples;Min_cycle;Max_cycle;Signal;HPM_P1;HPM_P2
2023/01/25 00:02:20;;;;;;;;;;;5.00;95.70;;;5.63;65.04;100356.41;4985421;28;114322;-71
2023/01/25 00:04:46;;;;;;;;;;;5.10;95.90;;;5.70;65.07;100346.97;5004249;28;123617;-70
2023/01/25 00:07:12;;;;;;;;;;;5.10;96.00;;;5.79;64.98;100346.59;5017387;28;124356;-71
2023/01/25 00:09:39;;;;;;;;;;;5.20;96.10;;;5.82;65.35;100335.97;5017773;28;114464;-69
2023/01/25 00:12:05;;;;;;;;;;;5.30;96.00;;;5.82;65.07;100333.22;5027055;28;113900;-71
2023/01/25 00:14:31;;;;;;;;;;;5.30;95.90;;;5.86;65.02;100322.63;5011844;28;123286;-72
2023/01/25 00:16:58;;;;;;;;;;;5.30;95.90;;;5.88;65.03;100323.19;5012315;28;122607;-74
2023/01/25 00:19:24;;;;;;;;;;;5.30;95.80;;;5.88;64.91;100331.41;5015698;28;114818;-72
2023/01/25 00:21:51;;;;;;;;;;;5.30;95.70;;;5.87;64.21;100319.63;5030575;28;115034;-70
2023/01/25 00:24:17;;;;;;;;;;;5.30;95.60;;;5.86;64.63;100326.19;5017276;28;124114;-71
2023/01/25 00:26:46;;;;;;;;;;;5.30;95.60;;;5.84;64.02;100324.78;5007192;28;123277;-72
2023/01/25 00:29:13;;;;;;;;;;;5.30;95.60;;;5.84;63.74;100324.78;5026041;28;114422;-71
2023/01/25 00:31:48;;;;;;;;;;;5.30;95.60;;;5.84;64.29;100324.78;5025747;28;113722;-73
2023/01/25 00:34:24;;;;;;;;;;;5.30;95.50;;;5.81;64.20;100333.47;5025810;28;125023;-69
2023/01/25 00:36:57;;;;;;;;;;;5.30;95.50;;;5.78;64.06;100323.84;5012549;28;123450;-71
2023/01/25 00:39:25;;;;;;;;;;;5.20;95.50;;;5.71;64.52;100325.88;5022143;28;113841;-70
2023/01/25 00:41:51;;;;;;;;;;;5.20;95.50;;;5.71;64.40;100334.09;5010666;28;113909;-71
2023/01/25 00:44:17;;;;;;;;;;;5.20;95.50;;;5.73;64.10;100324.56;5021686;28;124346;-70
2023/01/25 00:46:44;;;;;;;;;;;5.20;95.50;;;5.75;64.29;100325.16;5027190;28;123624;-71
2023/01/25 00:49:30;;;;;;;;;;;5.20;95.50;;;5.79;64.40;100330.16;5014242;28;113416;-71
2023/01/25 00:51:57;;;;;;;;;;;5.20;95.50;;;5.74;64.07;100326.22;4994321;28;113918;-71
2023/01/25 00:54:24;;;;;;;;;;;5.20;95.40;;;5.74;64.18;100317.16;5024752;28;124004;-71
2023/01/25 00:56:55;;;;;;;;;;;5.20;95.40;;;5.74;63.82;100309.75;4994150;28;123132;-70
2023/01/25 00:59:22;;;;;;;;;;;5.30;95.40;;;5.75;63.84;100310.63;5025976;28;114700;-70
2023/01/25 01:01:50;;;;;;;;;;;5.20;95.40;;;5.73;64.14;100307.28;5024104;28;113132;-70
2023/01/25 01:04:16;;;;;;;;;;;5.20;95.40;;;5.72;63.97;100300.97;5019566;28;123760;-70
2023/01/25 01:06:42;;;;;;;;;;;5.20;95.40;;;5.73;63.85;100297.13;5025568;28;124066;-70
2023/01/25 01:09:16;;;;;;;;;;;5.20;95.40;;;5.74;63.83;100309.75;5025669;28;115361;-70
2023/01/25 01:11:43;;;;;;;;;;;5.20;95.40;;;5.72;64.20;100306.44;5025541;28;114757;-71
2023/01/25 01:14:10;;;;;;;;;;;5.20;95.40;;;5.72;63.64;100306.44;5019865;28;124245;-70
2023/01/25 01:16:36;;;;;;;;;;;5.20;95.30;;;5.72;63.88;100306.44;5018841;28;125680;-69
2023/01/25 01:19:03;;;;;;;;;;;5.20;95.30;;;5.71;64.18;100299.28;5041959;27;114520;-69
2023/01/25 01:21:30;;;;;;;;;;;5.20;95.30;;;5.72;63.70;100300.97;5020251;28;113023;-69
2023/01/25 01:23:56;;;;;;;;;;;5.20;95.30;;;5.72;64.14;100298.22;5011684;28;124190;-69
2023/01/25 01:26:23;;;;;;;;;;;5.20;95.30;;;5.69;63.26;100306.91;5028464;28;123999;-69
2023/01/25 01:28:49;;;;;;;;;;;5.20;95.30;;;5.69;63.63;100306.91;5011933;28;114557;-69
2023/01/25 01:31:22;;;;;;;;;;;5.10;95.30;;;5.69;64.09;100301.41;4994520;28;113323;-70
2023/01/25 01:33:52;;;;;;;;;;;5.20;95.40;;;5.67;63.71;100309.09;5004954;28;124250;-69
2023/01/25 01:36:20;;;;;;;;;;;5.10;95.30;;;5.64;63.73;100303.22;5007278;28;123743;-69
2023/01/25 01:38:47;;;;;;;;;;;5.10;95.30;;;5.57;63.73;100303.38;5012492;28;115133;-69
2023/01/25 01:41:14;;;;;;;;;;;5.00;95.40;;;5.53;64.11;100296.72;5006497;28;113880;-69
2023/01/25 01:43:41;;;;;;;;;;;5.00;95.40;;;5.48;64.18;100302.94;5011179;28;124544;-70
2023/01/25 01:46:31;;;;;;;;;;;4.90;95.50;;;5.45;64.63;100302.56;4991102;28;123434;-69
2023/01/25 01:49:04;;;;;;;;;;;4.80;95.50;;;5.40;64.56;100307.94;5021942;28;114668;-69
2023/01/25 01:51:33;;;;;;;;;;;4.80;95.50;;;5.38;65.01;100305.44;5028975;28;113811;-69
2023/01/25 01:54:07;;;;;;;;;;;4.80;95.60;;;5.37;63.81;100309.25;5029617;28;124549;-70
2023/01/25 01:56:41;;;;;;;;;;;4.80;95.60;;;5.37;64.25;100309.25;5008695;28;124017;-69
2023/01/25 01:59:08;;;;;;;;;;;4.80;95.60;;;5.39;64.49;100304.38;5030916;28;115371;-70
2023/01/25 02:01:35;;;;;;;;;;;4.90;95.60;;;5.41;64.29;100304.97;5030127;28;114590;-69
2023/01/25 02:04:03;;;;;;;;;;;4.90;95.60;;;5.40;63.84;100310.69;5011284;28;126142;-69
2023/01/25 02:07:10;;;;;;;;;;;4.80;95.60;;;5.36;64.86;100306.75;5029369;28;123175;-69
2023/01/25 02:09:36;;;;;;;;;;;4.70;95.70;;;5.28;64.31;100303.31;5022040;28;114316;-69
2023/01/25 02:12:05;;;;;;;;;;;4.70;95.70;;;5.27;64.30;100307.13;5011428;28;113706;-70
2023/01/25 02:14:31;;;;;;;;;;;4.70;95.70;;;5.27;64.57;100304.41;5033745;28;124005;-69
2023/01/25 02:16:58;;;;;;;;;;;4.70;95.70;;;5.27;64.82;100304.41;4997297;28;122617;-71
2023/01/25 02:19:40;;;;;;;;;;;4.70;95.80;;;5.27;64.47;100298.91;5030435;28;114448;-70
2023/01/25 02:22:09;;;;;;;;;;;4.70;95.80;;;5.25;64.75;100298.31;5010850;28;114303;-70
2023/01/25 02:24:38;;;;;;;;;;;4.70;95.80;;;5.28;65.05;100295.09;5030723;28;124917;-70
2023/01/25 02:27:04;;;;;;;;;;;4.80;95.80;;;5.30;64.61;100297.59;5031478;28;125615;-71
2023/01/25 02:29:32;;;;;;;;;;;4.70;95.80;;;5.32;64.53;100295.47;5029098;28;114503;-71
2023/01/25 02:32:01;;;;;;;;;;;4.80;95.80;;;5.37;65.50;100290.06;5029590;28;114175;-70
2023/01/25 02:34:28;;;;;;;;;;;4.80;95.80;;;5.41;64.57;100290.44;5029898;28;124030;-70
2023/01/25 02:36:54;;;;;;;;;;;4.90;95.80;;;5.46;64.96;100280.41;5024007;28;124614;-70
2023/01/25 02:39:22;;;;;;;;;;;4.90;95.80;;;5.50;64.97;100275.25;5030405;28;114411;-70
2023/01/25 02:41:50;;;;;;;;;;;4.90;95.70;;;5.50;64.86;100270.59;5012688;28;113736;-70
2023/01/25 02:44:23;;;;;;;;;;;5.00;95.70;;;5.53;64.80;100274.78;5028507;28;124894;-70
2023/01/25 02:46:50;;;;;;;;;;;5.00;95.70;;;5.53;64.59;100283.00;5016655;28;123682;-71
2023/01/25 02:49:17;;;;;;;;;;;5.00;95.70;;;5.54;64.42;100281.94;5023822;28;115676;-71
2023/01/25 02:51:46;;;;;;;;;;;5.00;95.70;;;5.54;64.47;100284.69;5011415;28;114965;-71
2023/01/25 02:54:13;;;;;;;;;;;5.00;95.60;;;5.54;64.54;100281.94;5024883;28;124316;-70
2023/01/25 02:56:40;;;;;;;;;;;5.00;95.70;;;5.53;64.85;100274.78;4995419;28;123603;-70
2023/01/25 02:59:07;;;;;;;;;;;5.00;95.70;;;5.54;64.76;100276.47;5015148;28;114800;-70
2023/01/25 03:01:38;;;;;;;;;;;5.00;95.60;;;5.60;64.33;100275.47;5022706;28;113970;-70
2023/01/25 03:04:06;;;;;;;;;;;5.00;95.60;;;5.59;64.08;100273.81;5019847;28;124866;-71
2023/01/25 03:06:33;;;;;;;;;;;5.00;95.60;;;5.56;64.24;100267.97;5024589;28;124083;-70
2023/01/25 03:08:59;;;;;;;;;;;5.00;95.60;;;5.56;64.57;100257.84;5014195;28;114300;-72
2023/01/25 03:11:26;;;;;;;;;;;5.10;95.70;;;5.59;64.60;100265.59;5005623;28;113891;-71
2023/01/25 03:13:52;;;;;;;;;;;5.10;95.70;;;5.58;64.28;100261.16;5011606;28;123517;-71
2023/01/25 03:16:19;;;;;;;;;;;5.00;95.60;;;5.59;64.65;100260.13;5020953;28;123815;-71
2023/01/25 03:18:45;;;;;;;;;;;5.00;95.60;;;5.57;64.09;100247.72;5028421;28;114349;-70
2023/01/25 03:21:18;;;;;;;;;;;6.50;96.20;;;5.56;64.28;100246.88;5011780;28;113834;-70
2023/01/25 03:23:46;;;;;;;;;;;5.00;95.70;;;5.54;64.48;100243.56;5004291;28;124423;-70
2023/01/25 03:26:17;;;;;;;;;;;5.00;95.70;;;5.52;64.30;100235.56;5012823;28;123152;-71
2023/01/25 03:28:44;;;;;;;;;;;5.00;95.70;;;5.49;64.37;100237.97;5010108;28;115014;-72
2023/01/25 03:31:12;;;;;;;;;;;4.90;95.70;;;5.47;64.55;100240.13;5034129;28;113905;-76
2023/01/25 03:33:39;;;;;;;;;;;4.90;95.70;;;5.47;64.28;100238.19;5005304;28;124100;-71
2023/01/25 03:36:06;;;;;;;;;;;4.90;95.70;;;5.49;64.58;100235.22;5033246;28;124300;-72
2023/01/25 03:38:35;;;;;;;;;;;4.90;95.70;;;5.53;64.38;100239.13;5030465;28;114856;-74
2023/01/25 03:41:03;;;;;;;;;;;5.00;95.70;;;5.54;64.35;100238.06;5004184;28;115021;-71
2023/01/25 03:43:30;;;;;;;;;;;5.00;95.70;;;5.56;64.25;100240.56;5028681;28;124245;-71
2023/01/25 03:45:58;;;;;;;;;;;5.00;95.60;;;5.53;65.09;100241.88;5028487;28;123819;-70
2023/01/25 03:48:25;;;;;;;;;;;5.00;95.70;;;5.53;64.08;100241.88;5028116;27;114255;-70
2023/01/25 03:50:54;;;;;;;;;;;5.00;95.70;;;5.53;64.53;100236.41;5012536;28;113978;-71
2023/01/25 03:53:30;;;;;;;;;;;5.00;95.70;;;5.54;64.51;100230.69;5007920;28;123134;-70
2023/01/25 03:56:02;;;;;;;;;;;5.00;95.70;;;5.53;65.15;100230.91;5000206;28;123962;-71
2023/01/25 03:58:29;;;;;;;;;;;5.00;95.60;;;5.53;64.40;100233.66;5028783;28;114552;-70
2023/01/25 04:00:57;;;;;;;;;;;5.00;95.70;;;5.53;65.08;100230.91;4991136;28;113165;-71
2023/01/25 04:03:24;;;;;;;;;;;5.00;95.70;;;5.56;64.36;100233.16;5009135;28;123943;-71
2023/01/25 04:05:51;;;;;;;;;;;5.10;95.70;;;5.58;64.65;100232.94;4992983;28;123602;-71
2023/01/25 04:08:18;;;;;;;;;;;5.00;95.60;;;5.59;65.04;100232.69;5018143;28;114419;-70
2023/01/25 04:11:09;;;;;;;;;;;5.20;95.70;;;5.59;64.70;100235.44;5008306;28;114137;-71
2023/01/25 04:13:36;;;;;;;;;;;5.00;95.60;;;5.57;64.31;100232.09;5024461;28;125429;-70
2023/01/25 04:16:04;;;;;;;;;;;5.10;95.60;;;5.57;65.06;100229.38;5027716;28;123806;-71
2023/01/25 04:18:30;;;;;;;;;;;5.10;95.70;;;5.57;64.58;100232.09;5013273;28;113708;-71
2023/01/25 04:20:57;;;;;;;;;;;5.00;95.60;;;5.54;64.71;100233.41;5014078;28;112951;-71
2023/01/25 04:23:24;;;;;;;;;;;5.00;95.60;;;5.51;64.36;100230.34;4996578;28;123279;-70
2023/01/25 04:25:57;;;;;;;;;;;5.00;95.70;;;5.49;64.47;100233.31;5010243;28;124120;-71
2023/01/25 04:28:24;;;;;;;;;;;4.90;95.70;;;5.46;64.42;100236.56;5012015;28;115538;-71
2023/01/25 04:30:50;;;;;;;;;;;4.90;95.70;;;5.46;65.08;100235.72;5005811;28;114601;-71
2023/01/25 04:33:16;;;;;;;;;;;4.90;95.80;;;5.47;65.13;100229.16;5025445;28;124947;-70
2023/01/25 04:35:43;;;;;;;;;;;4.90;95.80;;;5.48;64.78;100228.94;5023722;28;123630;-70
2023/01/25 04:38:09;;;;;;;;;;;4.90;95.80;;;5.48;64.05;100217.97;5024839;28;115928;-71
2023/01/25 04:40:36;;;;;;;;;;;4.90;95.80;;;5.50;64.89;100212.22;5012901;28;112837;-71
2023/01/25 04:43:05;;;;;;;;;;;5.00;95.80;;;5.53;64.42;100219.94;5025557;28;124217;-70
2023/01/25 04:45:32;;;;;;;;;;;5.00;95.80;;;5.57;64.60;100220.31;4996146;28;123024;-71
2023/01/25 04:48:03;;;;;;;;;;;5.00;95.80;;;5.59;64.39;100219.00;5026760;28;115053;-71
2023/01/25 04:50:30;;;;;;;;;;;5.00;95.70;;;5.61;64.23;100216.00;5006896;28;113948;-70
2023/01/25 04:52:57;;;;;;;;;;;5.10;95.70;;;5.61;64.18;100210.50;5026285;28;124383;-71
2023/01/25 04:55:23;;;;;;;;;;;5.00;95.60;;;5.62;63.66;100217.66;5027205;28;124206;-70
2023/01/25 04:57:50;;;;;;;;;;;5.10;95.60;;;5.62;64.18;100218.50;5008616;28;113675;-71
2023/01/25 05:00:17;;;;;;;;;;;5.10;95.60;;;5.66;64.39;100207.88;5025105;28;113872;-71
2023/01/25 05:02:44;;;;;;;;;;;5.10;95.60;;;5.68;64.33;100212.03;5019937;28;124275;-71
2023/01/25 05:05:10;;;;;;;;;;;5.20;95.50;;;5.72;64.05;100215.97;5005749;28;124183;-71
2023/01/25 05:07:37;;;;;;;;;;;5.20;95.50;;;5.75;63.43;100211.88;5010159;28;113593;-70
2023/01/25 05:10:04;;;;;;;;;;;5.20;95.40;;;5.74;63.94;100205.53;5024893;28;113718;-71
2023/01/25 05:12:30;;;;;;;;;;;5.20;95.40;;;5.75;64.15;100209.97;5012518;28;124319;-70
2023/01/25 05:14:57;;;;;;;;;;;5.20;95.40;;;5.76;64.33;100208.88;5008143;28;123917;-71
2023/01/25 05:17:23;;;;;;;;;;;5.20;95.30;;;5.80;63.35;100208.38;5006808;28;115245;-71
2023/01/25 05:19:49;;;;;;;;;;;5.30;95.30;;;5.83;63.27;100211.50;5009420;28;114587;-71
2023/01/25 05:22:19;;;;;;;;;;;5.30;95.20;;;5.84;63.69;100209.56;5024328;28;123824;-70
2023/01/25 05:24:47;;;;;;;;;;;5.30;95.20;;;5.86;63.53;100207.44;4974441;28;123311;-71
2023/01/25 05:27:16;;;;;;;;;;;5.30;95.10;;;5.86;63.60;100202.75;5016525;28;114513;-71
2023/01/25 05:30:04;;;;;;;;;;;5.30;95.10;;;5.87;63.00;100192.63;4988978;28;113291;-71
2023/01/25 05:32:30;;;;;;;;;;;5.30;95.00;;;5.87;63.13;100195.38;4967964;28;124130;-72
2023/01/25 05:34:56;;;;;;;;;;;5.30;95.00;;;5.86;62.89;100200.03;4967427;28;124498;-71
2023/01/25 05:37:22;;;;;;;;;;;5.30;94.90;;;5.87;62.88;100200.84;4965746;28;113803;-71
2023/01/25 05:39:49;;;;;;;;;;;5.30;94.90;;;5.86;62.62;100196.44;4963986;28;113638;-71
2023/01/25 05:42:17;;;;;;;;;;;5.30;94.90;;;5.84;63.04;100190.38;4939104;28;124993;-70
2023/01/25 05:44:43;;;;;;;;;;;5.30;94.80;;;5.85;62.56;100200.25;4948170;28;123261;-71
2023/01/25 05:47:14;;;;;;;;;;;5.30;94.80;;;5.85;62.51;100194.78;4965593;28;114273;-70
2023/01/25 05:49:40;;;;;;;;;;;5.30;94.80;;;5.83;62.96;100197.78;4948450;28;113259;-71
2023/01/25 05:52:12;;;;;;;;;;;5.30;94.80;;;5.83;63.07;100196.91;4964623;28;124321;-70
2023/01/25 05:54:38;;;;;;;;;;;5.30;94.80;;;5.81;62.56;100204.59;4962494;28;123994;-70
2023/01/25 05:57:05;;;;;;;;;;;5.30;94.70;;;5.80;62.80;100191.94;4968203;28;114706;-71
2023/01/25 05:59:31;;;;;;;;;;;5.30;94.70;;;5.77;63.02;100187.78;4952245;28;113574;-71
2023/01/25 06:01:57;;;;;;;;;;;5.30;94.60;;;5.74;62.64;100189.09;4964803;28;123518;-70
2023/01/25 06:04:24;;;;;;;;;;;5.20;94.60;;;5.75;63.01;100192.69;4965379;28;124379;-70
2023/01/25 06:06:50;;;;;;;;;;;5.20;94.60;;;5.72;62.55;100185.78;4929378;28;114459;-70
2023/01/25 06:09:16;;;;;;;;;;;5.20;94.50;;;5.70;62.73;100182.47;4967441;28;113648;-70
2023/01/25 06:11:46;;;;;;;;;;;5.30;94.60;;;5.72;62.28;100184.94;4999231;28;122470;-71
2023/01/25 06:14:12;;;;;;;;;;;5.20;94.50;;;5.70;61.82;100187.94;5006352;28;124683;-70
2023/01/25 06:16:40;;;;;;;;;;;5.20;94.50;;;5.70;62.67;100181.63;5021988;28;114383;-70
2023/01/25 06:19:07;;;;;;;;;;;5.20;94.50;;;5.69;62.30;100189.00;5030244;28;113879;-70
2023/01/25 06:21:35;;;;;;;;;;;5.20;94.40;;;5.67;61.90;100188.44;5029841;28;125021;-70
2023/01/25 06:24:05;;;;;;;;;;;5.10;94.40;;;5.68;62.63;100184.59;5009714;28;124272;-70
2023/01/25 06:26:31;;;;;;;;;;;5.10;94.40;;;5.66;62.39;100180.44;5025511;28;115298;-70
2023/01/25 06:28:58;;;;;;;;;;;5.10;94.40;;;5.67;62.90;100188.44;5026846;28;113668;-70
2023/01/25 06:31:24;;;;;;;;;;;5.10;94.60;;;5.74;63.05;100186.34;5027302;28;123582;-70
2023/01/25 06:34:09;;;;;;;;;;;5.20;95.00;;;5.81;62.78;100183.47;5023776;28;124080;-81
2023/01/25 06:36:35;;;;;;;;;;;6.50;95.50;;;5.82;62.50;100179.63;5014504;28;114620;-70
2023/01/25 06:39:02;;;;;;;;;;;5.30;94.90;;;5.88;62.74;100177.81;5014496;28;112577;-73
2023/01/25 06:41:31;;;;;;;;;;;5.30;95.00;;;5.91;63.13;100180.06;5002716;28;124875;-70
2023/01/25 06:43:58;;;;;;;;;;;5.40;94.90;;;5.91;61.89;100180.91;5027241;28;123920;-70
2023/01/25 06:46:24;;;;;;;;;;;5.30;94.60;;;5.86;61.63;100178.09;5017074;28;114183;-70
2023/01/25 06:48:51;;;;;;;;;;;5.30;94.30;;;5.82;62.17;100174.16;5027863;28;113520;-71
2023/01/25 06:51:17;;;;;;;;;;;5.30;94.40;;;5.78;62.10;100166.66;5011401;28;123763;-71
2023/01/25 06:53:45;;;;;;;;;;;5.20;94.30;;;5.75;62.31;100171.59;5012014;28;125142;-71
2023/01/25 06:56:21;;;;;;;;;;;5.20;94.30;;;5.77;61.45;100171.31;5017602;28;115316;-70
2023/01/25 06:58:48;;;;;;;;;;;5.20;94.30;;;5.78;62.12;100172.16;5006838;28;114432;-70
2023/01/25 07:01:20;;;;;;;;;;;5.20;94.30;;;5.78;61.48;100169.41;5005848;28;124893;-71
2023/01/25 07:03:50;;;;;;;;;;;5.20;94.20;;;5.78;61.81;100163.91;5013436;28;123925;-73
2023/01/25 07:06:17;;;;;;;;;;;5.20;94.20;;;5.78;61.96;100156.53;5018746;28;114769;-76
2023/01/25 07:08:44;;;;;;;;;;;5.20;94.20;;;5.79;61.79;100158.19;5032315;28;113619;-71
2023/01/25 07:11:12;;;;;;;;;;;5.30;94.20;;;5.81;61.04;100150.56;5016521;28;125433;-71
2023/01/25 07:13:44;;;;;;;;;;;5.30;94.10;;;5.84;61.49;100150.06;5024203;27;123973;-71
2023/01/25 07:16:15;;;;;;;;;;;5.30;94.10;;;5.86;61.13;100155.31;5010772;28;113462;-71
2023/01/25 07:18:42;;;;;;;;;;;5.30;94.00;;;5.88;61.50;100153.97;5023784;28;113532;-71
2023/01/25 07:21:12;;;;;;;;;;;5.40;94.00;;;5.91;61.02;100152.63;5012843;28;123303;-71
2023/01/25 07:23:38;;;;;;;;;;;5.40;93.90;;;5.87;60.68;100152.31;5025165;28;124268;-70
2023/01/25 07:26:05;;;;;;;;;;;5.30;93.80;;;5.81;61.10;100161.53;5020988;28;116535;-72
2023/01/25 07:28:32;;;;;;;;;;;5.20;93.70;;;5.78;60.84;100147.47;5026968;28;113745;-70
2023/01/25 07:31:05;;;;;;;;;;;5.20;93.80;;;5.80;61.54;100148.88;4998819;28;124070;-72
2023/01/25 07:33:33;;;;;;;;;;;5.20;93.80;;;5.79;61.28;100149.16;5028567;28;123760;-70
2023/01/25 07:36:05;;;;;;;;;;;5.20;93.80;;;5.80;61.09;100153.53;5027854;28;114362;-70
2023/01/25 07:38:38;;;;;;;;;;;5.20;93.80;;;5.79;61.00;100146.41;5024412;28;113589;-70
2023/01/25 07:41:04;;;;;;;;;;;5.30;93.80;;;5.80;61.23;100139.81;5014901;28;123421;-71
2023/01/25 07:43:30;;;;;;;;;;;5.30;93.80;;;5.79;61.03;100140.91;5025556;28;124286;-71
2023/01/25 07:46:05;;;;;;;;;;;5.20;93.70;;;5.77;61.09;100146.63;5003290;28;115253;-74
2023/01/25 07:48:32;;;;;;;;;;;5.20;93.60;;;5.72;60.83;100136.44;5011093;28;113846;-73
2023/01/25 07:51:21;;;;;;;;;;;5.20;93.70;;;5.74;61.27;100139.75;5010229;28;123344;-71
2023/01/25 07:53:58;;;;;;;;;;;5.20;93.70;;;5.79;61.15;100133.50;5007175;28;124100;-71
2023/01/25 07:56:27;;;;;;;;;;;5.30;93.80;;;5.79;60.87;100138.19;4996734;28;113540;-72
2023/01/25 07:58:58;;;;;;;;;;;5.30;93.70;;;5.81;60.43;100141.50;4994809;28;113934;-73
2023/01/25 08:01:26;;;;;;;;;;;5.30;93.60;;;5.82;61.26;100134.94;4995561;28;123841;-72
2023/01/25 08:03:54;;;;;;;;;;;5.30;93.70;;;5.85;60.94;100145.41;5027623;28;124078;-71
2023/01/25 08:06:29;;;;;;;;;;;5.30;93.60;;;5.88;60.13;100144.91;4998619;28;114587;-74
2023/01/25 08:08:56;;;;;;;;;;;5.30;93.50;;;5.87;60.46;100143.25;5023461;28;113472;-73
2023/01/25 08:11:25;;;;;;;;;;;5.30;93.50;;;5.89;60.44;100144.66;4995374;28;123782;-72
2023/01/25 08:13:51;;;;;;;;;;;5.30;93.50;;;5.93;60.48;100142.25;4988113;28;123499;-72
2023/01/25 08:16:21;;;;;;;;;;;5.40;93.50;;;5.95;59.92;100148.34;5010521;28;114888;-72
2023/01/25 08:18:58;;;;;;;;;;;5.40;93.40;;;5.98;60.25;100145.09;5006265;28;112834;-72
2023/01/25 08:21:28;;;;;;;;;;;5.40;93.40;;;5.98;60.63;100143.19;4964391;28;123485;-72
2023/01/25 08:23:59;;;;;;;;;;;5.50;93.40;;;6.01;60.30;100141.88;4989080;28;125294;-71
2023/01/25 08:26:26;;;;;;;;;;;5.50;93.60;;;6.02;59.58;100150.91;4980892;28;114525;-71
2023/01/25 08:28:52;;;;;;;;;;;5.50;93.20;;;6.01;59.38;100154.75;4978132;28;113083;-72
2023/01/25 08:31:21;;;;;;;;;;;5.50;93.10;;;6.00;60.17;100151.19;5001015;28;122975;-72
2023/01/25 08:33:48;;;;;;;;;;;5.50;93.30;;;6.00;59.40;100151.19;4997224;28;123849;-72
2023/01/25 08:36:17;;;;;;;;;;;5.50;92.90;;;5.95;58.64;100142.88;4998105;28;115411;-72
2023/01/25 08:38:46;;;;;;;;;;;5.40;92.80;;;5.92;58.98;100141.41;5003077;28;114182;-75
2023/01/25 08:41:15;;;;;;;;;;;5.30;92.80;;;5.89;59.50;100138.34;4979146;28;124725;-72
2023/01/25 08:43:42;;;;;;;;;;;6.40;93.20;;;5.86;59.83;100141.59;5001319;28;123205;-72
2023/01/25 08:46:08;;;;;;;;;;;5.30;93.20;;;5.84;60.76;100132.78;4982770;28;114153;-73
2023/01/25 08:48:35;;;;;;;;;;;5.20;93.50;;;5.84;60.59;100132.78;4979311;28;114174;-73
2023/01/25 08:51:01;;;;;;;;;;;5.30;93.50;;;5.86;60.32;100138.84;4962805;28;123212;-72
2023/01/25 08:53:30;;;;;;;;;;;5.30;93.50;;;5.87;60.36;100137.75;5005522;28;124554;-72
2023/01/25 08:56:07;;;;;;;;;;;5.30;93.40;;;5.81;59.92;100128.63;5027539;27;114302;-72
2023/01/25 08:58:36;;;;;;;;;;;5.30;93.40;;;5.74;60.12;100123.28;4997235;28;113567;-72
2023/01/25 09:01:04;;;;;;;;;;;5.20;93.40;;;5.73;60.92;100116.16;5023206;28;123129;-72
2023/01/25 09:03:33;;;;;;;;;;;5.20;93.40;;;5.75;60.45;100114.00;5009009;28;123258;-72
2023/01/25 09:05:59;;;;;;;;;;;5.20;93.40;;;5.70;60.69;100111.16;5024536;28;114656;-73
2023/01/25 09:08:25;;;;;;;;;;;5.10;93.30;;;5.62;60.30;100117.06;5026475;28;113404;-73
2023/01/25 09:10:53;;;;;;;;;;;5.00;93.40;;;5.61;61.13;100118.13;5026699;28;124194;-72
2023/01/25 09:13:19;;;;;;;;;;;5.00;93.50;;;5.64;60.26;100109.41;5020478;28;123743;-72
2023/01/25 09:15:45;;;;;;;;;;;5.10;93.60;;;5.68;60.90;100107.84;5009482;28;114429;-72
2023/01/25 09:18:11;;;;;;;;;;;5.20;93.60;;;5.72;60.84;100102.66;5003382;28;113665;-74
2023/01/25 09:20:39;;;;;;;;;;;5.20;93.50;;;5.76;60.83;100107.41;5015960;28;124450;-73
2023/01/25 09:23:07;;;;;;;;;;;5.20;93.50;;;5.79;60.61;100114.31;5020730;27;124388;-74
2023/01/25 09:25:34;;;;;;;;;;;5.20;93.50;;;5.79;60.42;100103.34;5004762;28;114165;-74
2023/01/25 09:28:01;;;;;;;;;;;5.20;93.50;;;5.81;60.32;100105.84;4988872;28;114124;-74
2023/01/25 09:30:27;;;;;;;;;;;5.20;93.50;;;5.83;60.68;100107.28;4992129;28;124816;-72
2023/01/25 09:32:54;;;;;;;;;;;4.10;93.00;;;5.86;60.54;100108.69;5008470;28;123802;-72
2023/01/25 09:35:20;;;;;;;;;;;5.30;93.50;;;5.85;60.81;100104.25;5011301;28;114616;-72
2023/01/25 09:37:50;;;;;;;;;;;5.30;93.40;;;5.82;60.42;100107.50;4992538;28;114313;-72
2023/01/25 09:40:23;;;;;;;;;;;5.30;93.50;;;5.82;60.33;100104.75;5016284;28;124690;-71
2023/01/25 09:43:28;;;;;;;;;;;5.20;93.40;;;5.79;60.79;100105.25;4988916;28;123418;-73
2023/01/25 09:45:54;;;;;;;;;;;5.20;93.40;;;5.71;61.01;100107.34;5028159;27;114625;-72
2023/01/25 09:48:28;;;;;;;;;;;5.10;93.50;;;5.68;60.93;100105.09;5026164;28;113961;-72
2023/01/25 09:51:24;;;;;;;;;;;5.10;93.50;;;5.67;60.61;100111.66;5027922;28;123873;-73
2023/01/25 09:53:52;;;;;;;;;;;5.10;93.50;;;5.65;61.24;100097.38;5003900;28;123557;-73
2023/01/25 09:56:46;;;;;;;;;;;5.10;93.50;;;5.69;60.90;100109.47;4997170;28;113710;-72
2023/01/25 09:59:15;;;;;;;;;;;5.10;93.50;;;5.66;60.68;100107.25;5024566;28;113550;-73
2023/01/25 10:02:00;;;;;;;;;;;5.10;93.40;;;5.69;60.80;100108.66;5027353;28;124597;-73
2023/01/25 10:04:36;;;;;;;;;;;5.10;93.40;;;5.72;61.01;100100.78;5018580;28;123764;-72
2023/01/25 10:07:25;;;;;;;;;;;5.10;93.40;;;5.75;60.25;100097.53;5023962;28;114899;-71
2023/01/25 10:10:01;;;;;;;;;;;5.20;93.40;;;5.74;60.16;100095.03;5029708;28;113778;-70
2023/01/25 10:12:37;;;;;;;;;;;5.20;93.40;;;5.72;60.23;100088.97;5009679;28;123407;-72
2023/01/25 10:15:21;;;;;;;;;;;5.20;93.20;;;5.74;60.17;100093.13;5012391;28;123964;-72
2023/01/25 10:18:13;;;;;;;;;;;5.20;93.20;;;5.72;60.37;100092.56;5025934;28;115276;-72
2023/01/25 10:20:51;;;;;;;;;;;5.20;93.20;;;5.73;60.23;100087.91;5003781;28;114322;-72
2023/01/25 10:23:41;;;;;;;;;;;5.20;93.20;;;5.78;60.11;100087.13;5013844;28;124733;-73
2023/01/25 10:26:35;;;;;;;;;;;5.20;93.20;;;5.83;60.50;100081.72;5015132;28;123428;-73
2023/01/25 10:29:10;;;;;;;;;;;5.30;93.20;;;5.86;59.61;100081.25;5027256;28;114980;-73
2023/01/25 10:31:48;;;;;;;;;;;5.30;93.10;;;5.84;59.40;100084.25;5016183;28;113270;-72
2023/01/25 10:34:30;;;;;;;;;;;5.30;93.10;;;5.84;60.13;100066.97;5032933;28;124521;-72
2023/01/25 10:37:11;;;;;;;;;;;5.30;93.00;;;5.86;60.13;100070.28;5017290;28;121976;-71
2023/01/25 10:39:41;;;;;;;;;;;5.30;93.10;;;5.75;60.05;100064.63;5030981;28;115028;-71
2023/01/25 10:42:11;;;;;;;;;;;5.20;92.90;;;5.71;59.66;100057.97;5026214;28;113729;-70
2023/01/25 10:44:37;;;;;;;;;;;5.20;93.00;;;5.70;60.31;100060.97;5010590;28;124278;-71
2023/01/25 10:47:28;;;;;;;;;;;5.20;93.00;;;5.74;59.42;100062.13;5032633;28;123945;-71
2023/01/25 10:49:56;;;;;;;;;;;5.20;93.10;;;5.73;60.16;100047.59;5006312;28;114692;-77
2023/01/25 10:52:28;;;;;;;;;;;5.20;93.10;;;5.78;59.50;100048.75;5026867;28;113419;-71
2023/01/25 10:55:22;;;;;;;;;;;5.20;93.10;;;5.77;59.73;100050.66;5026551;28;124843;-71
2023/01/25 10:57:50;;;;;;;;;;;5.20;92.90;;;5.70;59.79;100050.00;5027227;27;124847;-71
2023/01/25 11:00:35;;;;;;;;;;;5.10;92.90;;;5.70;59.80;100042.63;5010447;28;115082;-72
2023/01/25 11:03:02;;;;;;;;;;;5.10;93.00;;;5.69;59.58;100038.19;4999887;28;114125;-71
2023/01/25 11:05:39;;;;;;;;;;;5.20;93.00;;;5.73;59.78;100039.38;5014393;28;123248;-72
2023/01/25 11:08:30;;;;;;;;;;;5.10;92.90;;;5.71;59.55;100030.56;5028661;28;123979;-71
2023/01/25 11:10:57;;;;;;;;;;;5.20;92.80;;;5.66;59.59;100038.69;5022163;28;115551;-71
2023/01/25 11:13:26;;;;;;;;;;;5.10;92.80;;;5.67;59.82;100037.63;5012438;28;114781;-71
2023/01/25 11:16:19;;;;;;;;;;;5.10;92.90;;;5.70;59.80;100033.56;4991508;28;124536;-80
2023/01/25 11:18:50;;;;;;;;;;;5.10;92.90;;;5.67;59.46;100040.38;4974104;28;123793;-72
2023/01/25 11:21:21;;;;;;;;;;;5.10;92.90;;;5.63;59.90;100038.38;4965166;28;113974;-72
2023/01/25 11:23:57;;;;;;;;;;;5.10;92.90;;;5.65;59.82;100039.78;4975829;28;113860;-72
2023/01/25 11:26:25;;;;;;;;;;;5.10;93.00;;;5.65;60.09;100037.03;4985382;28;124395;-72
2023/01/25 11:29:14;;;;;;;;;;;5.10;92.90;;;5.67;59.55;100023.06;4924055;28;123891;-75
2023/01/25 11:31:44;;;;;;;;;;;5.10;93.10;;;5.65;60.00;100025.25;4916227;28;113818;-75